LNG Aquarius — V7BW6 — position and weather

sailwx.info

Track history (hours):
 
Tides and Currents Weather Stations Pressure Air Temp Water Temp Dewpoint Dewpoint Depression Visibility Wind Speed Wind Dir Waves Ship Positions

LNG Aquarius

Last reported at 2016-Aug-19 02:28 UTC. Time now 2016-Sep-01 01:59 UTC.
Position N 27°09' W 115°08'.
Warning: this ship's position is 12 days out of date.

Type: Tanker. MMSI: 538001385.

Date/timePositionNaut miles runAvg speedWind from/ knotsBaromVisibWave heightAir tempDewpointWater temp
2016-Aug-19 02:28N 27°09' W 115°08'1313.0
2016-Aug-19 01:26N 27°20' W 115°16'1112.7
2016-Aug-19 00:33N 27°29' W 115°24'1812.9
2016-Aug-18 23:10N 27°42' W 115°36'812.8
2016-Aug-18 22:33N 27°49' W 115°41'8912.7
2016-Aug-18 15:33N 29°12' W 116°18'1513.2
2016-Aug-18 14:25N 29°26' W 116°22'2713.1
2016-Aug-18 12:21N 29°53' W 116°31'1512.6
2016-Aug-18 11:10N 30°07' W 116°36'1112.4
2016-Aug-18 10:17N 30°17' W 116°39'912.6
2016-Aug-18 09:33N 30°26' W 116°42'1312.7
2016-Aug-18 08:30N 30°39' W 116°46'1212.8
2016-Aug-18 07:33N 30°51' W 116°49'1312.8
2016-Aug-18 06:33N 31°04' W 116°51'1513.7
2016-Aug-18 05:29N 31°18' W 116°52'1313.6
2016-Aug-18 04:33N 31°31' W 116°52'1412.8
2016-Aug-18 03:30N 31°44' W 116°50'7 0.5
2016-Aug-17 12:22N 31°48' W 116°43'4 5.3
2016-Aug-17 11:32N 31°46' W 116°48'1212.2
2016-Aug-17 10:33N 31°41' W 117°01'1312.8
2016-Aug-17 09:33N 31°36' W 117°14'3012.8
2016-Aug-17 07:11N 31°24' W 117°47'812.8
2016-Aug-17 06:33N 31°21' W 117°56'1212.4
2016-Aug-17 05:33N 31°16' W 118°09'1212.3
2016-Aug-17 04:33N 31°11' W 118°23'1212.3
2016-Aug-17 03:33N 31°06' W 118°36'1212.2
2016-Aug-17 02:34N 31°03' W 118°49'1212.2
2016-Aug-17 01:33N 31°01' W 119°03'1312.6
2016-Aug-17 00:33N 30°59' W 119°18'3013.1
2016-Aug-16 22:15N 30°53' W 119°52'1012.8
2016-Aug-16 21:30N 30°51' W 120°03'2512.4
2016-Aug-16 19:27N 30°45' W 120°32'1112.3
2016-Aug-16 18:33N 30°43' W 120°45'1212.1
2016-Aug-16 17:33N 30°41' W 120°58'1212.1
2016-Aug-16 16:32N 30°38' W 121°12'1212.1
2016-Aug-16 15:33N 30°36' W 121°26'1212.2
2016-Aug-16 14:33N 30°33' W 121°40'1211.8
2016-Aug-16 13:33N 30°31' W 121°53'1212.2
2016-Aug-16 12:33N 30°39' W 122°04'1212.5
2016-Aug-16 11:33N 30°47' W 122°15'1312.6
2016-Aug-16 10:33N 30°55' W 122°27'1312.6
2016-Aug-16 09:34N 31°03' W 122°38'1512.7
2016-Aug-16 08:22N 31°13' W 122°51'1112.8
2016-Aug-16 07:33N 31°20' W 123°01'4112.7
2016-Aug-16 04:18N 31°46' W 123°38'3311.9
2016-Aug-16 01:33N 32°07' W 124°08'18312.2
2016-Aug-15 10:33N 34°00' W 126°58'13712.4
2016-Aug-14 23:28N 35°23' W 129°12'  
Track history (hours):
 
Tides and Currents Weather Stations Pressure Air Temp Water Temp Dewpoint Dewpoint Depression Visibility Wind Speed Wind Dir Waves Ship Positions

LNG Aquarius

Last reported at 2016-Aug-19 02:28 UTC. Time now 2016-Sep-01 01:59 UTC.
Position N 27°09' W 115°08'.
Warning: this ship's position is 12 days out of date.

Type: Tanker. MMSI: 538001385.

Date/timePositionNaut miles runAvg speedWind from/ knotsBaromVisibWave heightAir tempDewpointWater temp
2016-Aug-19 02:28N 27°09' W 115°08'1313.0
2016-Aug-19 01:26N 27°20' W 115°16'1112.7
2016-Aug-19 00:33N 27°29' W 115°24'1812.9
2016-Aug-18 23:10N 27°42' W 115°36'812.8
2016-Aug-18 22:33N 27°49' W 115°41'8912.7
2016-Aug-18 15:33N 29°12' W 116°18'1513.2
2016-Aug-18 14:25N 29°26' W 116°22'2713.1
2016-Aug-18 12:21N 29°53' W 116°31'1512.6
2016-Aug-18 11:10N 30°07' W 116°36'1112.4
2016-Aug-18 10:17N 30°17' W 116°39'912.6
2016-Aug-18 09:33N 30°26' W 116°42'1312.7
2016-Aug-18 08:30N 30°39' W 116°46'1212.8
2016-Aug-18 07:33N 30°51' W 116°49'1312.8
2016-Aug-18 06:33N 31°04' W 116°51'1513.7
2016-Aug-18 05:29N 31°18' W 116°52'1313.6
2016-Aug-18 04:33N 31°31' W 116°52'1412.8
2016-Aug-18 03:30N 31°44' W 116°50'7 0.5
2016-Aug-17 12:22N 31°48' W 116°43'4 5.3
2016-Aug-17 11:32N 31°46' W 116°48'1212.2
2016-Aug-17 10:33N 31°41' W 117°01'1312.8
2016-Aug-17 09:33N 31°36' W 117°14'3012.8
2016-Aug-17 07:11N 31°24' W 117°47'812.8
2016-Aug-17 06:33N 31°21' W 117°56'1212.4
2016-Aug-17 05:33N 31°16' W 118°09'1212.3
2016-Aug-17 04:33N 31°11' W 118°23'1212.3
2016-Aug-17 03:33N 31°06' W 118°36'1212.2
2016-Aug-17 02:34N 31°03' W 118°49'1212.2
2016-Aug-17 01:33N 31°01' W 119°03'1312.6
2016-Aug-17 00:33N 30°59' W 119°18'3013.1
2016-Aug-16 22:15N 30°53' W 119°52'1012.8
2016-Aug-16 21:30N 30°51' W 120°03'2512.4
2016-Aug-16 19:27N 30°45' W 120°32'1112.3
2016-Aug-16 18:33N 30°43' W 120°45'1212.1
2016-Aug-16 17:33N 30°41' W 120°58'1212.1
2016-Aug-16 16:32N 30°38' W 121°12'1212.1
2016-Aug-16 15:33N 30°36' W 121°26'1212.2
2016-Aug-16 14:33N 30°33' W 121°40'1211.8
2016-Aug-16 13:33N 30°31' W 121°53'1212.2
2016-Aug-16 12:33N 30°39' W 122°04'1212.5
2016-Aug-16 11:33N 30°47' W 122°15'1312.6
2016-Aug-16 10:33N 30°55' W 122°27'1312.6
2016-Aug-16 09:34N 31°03' W 122°38'1512.7
2016-Aug-16 08:22N 31°13' W 122°51'1112.8
2016-Aug-16 07:33N 31°20' W 123°01'4112.7
2016-Aug-16 04:18N 31°46' W 123°38'3311.9
2016-Aug-16 01:33N 32°07' W 124°08'18312.2
2016-Aug-15 10:33N 34°00' W 126°58'13712.4
2016-Aug-14 23:28N 35°23' W 129°12'  

Dump ship's entire track history